createdAt,value
2023-04-02T00:01:05.242Z,7.25
2023-04-02T00:03:59.393Z,5.45
2023-04-02T00:06:33.351Z,6.53
2023-04-02T00:09:23.506Z,6.38
2023-04-02T00:11:55.909Z,6.00
2023-04-02T00:14:33.614Z,6.68
2023-04-02T00:17:04.713Z,7.00
2023-04-02T00:19:38.617Z,5.68
2023-04-02T00:22:09.869Z,6.90
2023-04-02T00:24:39.280Z,5.78
2023-04-02T00:27:12.059Z,5.43
2023-04-02T00:29:54.287Z,6.65
2023-04-02T00:32:27.868Z,4.70
2023-04-02T00:34:56.311Z,4.85
2023-04-02T00:37:30.365Z,5.18
2023-04-02T00:40:16.980Z,4.90
2023-04-02T00:42:46.718Z,4.82
2023-04-02T00:45:29.904Z,4.75
2023-04-02T00:48:00.572Z,5.15
2023-04-02T00:50:40.100Z,6.80
2023-04-02T00:53:20.299Z,5.38
2023-04-02T00:55:48.653Z,4.85
2023-04-02T00:58:37.454Z,6.88
2023-04-02T01:01:19.316Z,5.15
2023-04-02T01:03:59.574Z,6.10
2023-04-02T01:06:32.114Z,5.20
2023-04-02T01:09:15.060Z,4.82
2023-04-02T01:11:43.269Z,5.05
2023-04-02T01:14:56.299Z,4.50
2023-04-02T01:17:30.660Z,5.50
2023-04-02T01:23:08.213Z,4.93
2023-04-02T01:25:51.044Z,4.50
2023-04-02T01:28:46.001Z,4.80
2023-04-02T01:33:45.022Z,4.80
2023-04-02T01:36:33.549Z,4.40
2023-04-02T01:39:15.856Z,5.95
2023-04-02T01:41:55.524Z,4.40
2023-04-02T01:44:32.503Z,4.65
2023-04-02T01:47:05.649Z,4.80
2023-04-02T01:49:33.326Z,6.30
2023-04-02T01:52:00.934Z,7.95
2023-04-02T01:54:33.418Z,7.88
2023-04-02T01:57:05.315Z,5.88
2023-04-02T01:59:33.455Z,5.40
2023-04-02T02:02:11.455Z,4.95
2023-04-02T02:04:41.634Z,5.60
2023-04-02T02:07:16.984Z,6.65
2023-04-02T02:09:49.150Z,4.95
2023-04-02T02:12:18.016Z,6.57
2023-04-02T02:14:52.342Z,14.43
2023-04-02T02:17:31.127Z,5.80
2023-04-02T02:20:01.215Z,6.10
2023-04-02T02:22:37.263Z,5.07
2023-04-02T02:25:11.688Z,4.93
2023-04-02T02:27:47.132Z,5.82
2023-04-02T02:30:32.677Z,6.05
2023-04-02T02:36:02.988Z,5.95
2023-04-02T02:38:35.480Z,6.47
2023-04-02T02:41:21.728Z,5.70
2023-04-02T02:44:06.797Z,5.88
2023-04-02T02:46:40.277Z,5.78
2023-04-02T02:49:17.185Z,6.10
2023-04-02T02:51:50.326Z,6.22
2023-04-02T02:54:27.669Z,5.15
2023-04-02T02:57:01.476Z,5.03
2023-04-02T02:59:31.697Z,10.82
2023-04-02T03:02:02.268Z,5.10
2023-04-02T03:04:30.829Z,6.05
2023-04-02T03:07:00.766Z,5.25
2023-04-02T03:09:37.784Z,6.18
2023-04-02T03:12:34.325Z,5.95
2023-04-02T03:15:08.370Z,5.88
2023-04-02T03:17:54.701Z,6.72
2023-04-02T03:20:52.358Z,6.00
2023-04-02T03:23:26.998Z,5.63
2023-04-02T03:26:02.076Z,5.83
2023-04-02T03:28:35.824Z,6.80
2023-04-02T03:31:09.245Z,5.95
2023-04-02T03:33:46.043Z,6.25
2023-04-02T03:36:18.917Z,6.35
2023-04-02T03:38:56.267Z,5.25
2023-04-02T03:41:38.846Z,5.63
2023-04-02T03:44:21.367Z,6.18
2023-04-02T03:46:57.809Z,6.57
2023-04-02T03:49:37.002Z,6.07
2023-04-02T03:52:27.091Z,6.45
2023-04-02T03:54:59.897Z,16.77
2023-04-02T03:57:43.011Z,15.50
2023-04-02T04:00:27.364Z,11.85
2023-04-02T04:03:06.231Z,12.00
2023-04-02T04:05:44.311Z,8.02
2023-04-02T04:08:42.535Z,7.43
2023-04-02T04:11:16.177Z,6.65
2023-04-02T04:13:50.353Z,7.10
2023-04-02T04:16:33.089Z,6.30
2023-04-02T04:19:10.949Z,6.60
2023-04-02T04:21:39.021Z,6.47
2023-04-02T04:24:23.870Z,5.65
2023-04-02T04:27:17.346Z,4.82
2023-04-02T04:29:57.802Z,5.63
2023-04-02T04:32:33.905Z,5.25
2023-04-02T04:35:35.447Z,5.80
2023-04-02T04:38:27.932Z,5.20
2023-04-02T04:41:03.328Z,6.03
2023-04-02T04:43:50.274Z,5.93
2023-04-02T04:46:40.398Z,5.65
2023-04-02T04:50:06.413Z,6.40
2023-04-02T04:52:41.281Z,5.70
2023-04-02T04:55:40.227Z,5.22
2023-04-02T04:58:19.552Z,5.97
2023-04-02T05:00:53.587Z,11.00
2023-04-02T05:03:42.395Z,10.43
2023-04-02T05:06:16.475Z,10.73
2023-04-02T05:11:41.403Z,9.60
2023-04-02T05:14:29.994Z,9.95
2023-04-02T05:17:21.887Z,7.57
2023-04-02T05:20:23.784Z,7.75
2023-04-02T05:23:07.148Z,7.45
2023-04-02T05:25:49.513Z,7.38
2023-04-02T05:28:29.683Z,7.65
2023-04-02T05:31:26.090Z,7.47
2023-04-02T05:33:56.326Z,7.65
2023-04-02T05:36:29.725Z,7.55
2023-04-02T05:39:00.136Z,6.38
2023-04-02T05:41:58.050Z,5.85
2023-04-02T05:44:45.667Z,6.90
2023-04-02T05:47:28.994Z,7.40
2023-04-02T05:50:09.728Z,6.50
2023-04-02T05:52:51.134Z,8.05
2023-04-02T05:55:36.576Z,7.97
2023-04-02T05:58:34.414Z,8.02
2023-04-02T06:01:21.656Z,8.45
2023-04-02T06:04:21.598Z,8.00
2023-04-02T06:07:16.007Z,7.72
2023-04-02T06:10:04.975Z,7.82
2023-04-02T06:12:45.532Z,11.25
2023-04-02T06:15:17.055Z,8.70
2023-04-02T06:18:01.544Z,8.38
2023-04-02T06:20:29.758Z,8.88
2023-04-02T06:23:01.745Z,7.82
2023-04-02T06:25:37.949Z,9.00
2023-04-02T06:28:17.075Z,7.85
2023-04-02T06:30:57.824Z,7.05
2023-04-02T06:33:25.667Z,7.97
2023-04-02T06:35:55.233Z,7.03
2023-04-02T06:38:31.467Z,9.82
2023-04-02T06:41:15.261Z,10.00
2023-04-02T06:44:05.811Z,8.88
2023-04-02T06:47:02.992Z,11.07
2023-04-02T06:49:38.151Z,8.20
2023-04-02T06:52:18.530Z,9.68
2023-04-02T06:54:46.627Z,8.18
2023-04-02T06:57:14.757Z,7.07
2023-04-02T06:59:45.932Z,6.25
2023-04-02T07:02:25.286Z,5.68
2023-04-02T07:05:00.120Z,7.65
2023-04-02T07:07:29.391Z,5.75
2023-04-02T07:10:22.117Z,6.63
2023-04-02T07:12:51.140Z,5.10
2023-04-02T07:15:20.063Z,5.50
2023-04-02T07:17:48.409Z,7.85
2023-04-02T07:20:29.932Z,5.18
2023-04-02T07:23:00.704Z,3.20
2023-04-02T07:25:29.686Z,4.32
2023-04-02T07:28:01.714Z,3.83
2023-04-02T07:30:28.929Z,2.63
2023-04-02T07:32:56.755Z,3.95
2023-04-02T07:35:24.218Z,2.88
2023-04-02T07:37:52.990Z,3.72
2023-04-02T07:40:23.158Z,4.05
2023-04-02T07:42:51.171Z,2.63
2023-04-02T07:45:18.501Z,4.03
2023-04-02T07:47:46.976Z,3.65
2023-04-02T07:50:14.855Z,3.13
2023-04-02T07:52:43.179Z,2.45
2023-04-02T07:55:13.031Z,2.83
2023-04-02T07:57:53.561Z,3.90
2023-04-02T08:00:22.727Z,3.35
2023-04-02T08:02:51.646Z,3.97
2023-04-02T08:05:21.155Z,4.40
2023-04-02T08:07:54.926Z,4.57
2023-04-02T08:10:22.737Z,5.65
2023-04-02T08:12:50.737Z,7.40
2023-04-02T08:15:18.706Z,7.03
2023-04-02T08:17:49.064Z,7.45
2023-04-02T08:20:19.421Z,6.90
2023-04-02T08:22:48.345Z,6.22
2023-04-02T08:25:16.976Z,6.85
2023-04-02T08:27:48.095Z,5.38
2023-04-02T08:30:16.644Z,14.95
2023-04-02T08:32:44.586Z,10.48
2023-04-02T08:35:14.794Z,7.32
2023-04-02T08:37:42.897Z,6.88
2023-04-02T08:40:22.543Z,6.68
2023-04-02T08:42:50.261Z,5.18
2023-04-02T08:45:36.983Z,3.88
2023-04-02T08:48:10.068Z,5.25
2023-04-02T08:50:44.758Z,3.67
2023-04-02T08:53:23.144Z,3.28
2023-04-02T08:56:17.901Z,3.20
2023-04-02T09:01:47.301Z,4.25
2023-04-02T09:04:24.063Z,3.20
2023-04-02T09:06:54.495Z,3.55
2023-04-02T09:09:23.596Z,4.30
2023-04-02T09:12:04.443Z,4.78
2023-04-02T09:14:59.032Z,4.97
2023-04-02T09:17:28.528Z,3.70
2023-04-02T09:20:05.776Z,4.47
2023-04-02T09:22:35.295Z,3.90
2023-04-02T09:25:06.141Z,3.88
2023-04-02T09:27:54.742Z,4.45
2023-04-02T09:30:49.595Z,5.13
2023-04-02T09:33:16.966Z,9.13
2023-04-02T09:35:50.754Z,5.43
2023-04-02T09:38:32.927Z,4.85
2023-04-02T09:41:22.710Z,4.18
2023-04-02T09:43:50.101Z,4.05
2023-04-02T09:46:26.025Z,4.68
2023-04-02T09:48:54.421Z,5.22
2023-04-02T09:51:27.882Z,3.08
2023-04-02T09:54:04.508Z,4.18
2023-04-02T09:56:40.860Z,3.63
2023-04-02T09:59:15.739Z,3.70
2023-04-02T10:01:58.308Z,4.32
2023-04-02T10:04:46.926Z,3.28
2023-04-02T10:07:37.862Z,3.95
2023-04-02T10:10:21.211Z,4.35
2023-04-02T10:13:04.333Z,4.82
2023-04-02T10:15:42.137Z,3.03
2023-04-02T10:18:12.776Z,2.75
2023-04-02T10:20:50.907Z,3.13
2023-04-02T10:23:19.852Z,4.22
2023-04-02T10:26:08.470Z,3.30
2023-04-02T10:28:45.258Z,3.10
2023-04-02T10:31:31.822Z,3.50
2023-04-02T10:34:10.138Z,3.65
2023-04-02T10:36:54.478Z,2.47
2023-04-02T10:39:36.801Z,2.88
2023-04-02T10:42:19.111Z,4.10
2023-04-02T10:45:16.674Z,3.25
2023-04-02T10:47:49.255Z,3.30
2023-04-02T10:50:55.687Z,3.90
2023-04-02T10:53:53.909Z,3.88
2023-04-02T10:56:25.942Z,3.60
2023-04-02T10:59:06.375Z,4.15
2023-04-02T11:01:36.527Z,4.63
2023-04-02T11:04:45.611Z,3.88
2023-04-02T11:07:25.218Z,4.38
2023-04-02T11:09:58.132Z,3.30
2023-04-02T11:12:42.206Z,3.20
2023-04-02T11:15:21.195Z,5.28
2023-04-02T11:17:49.158Z,4.95
2023-04-02T11:20:48.967Z,4.97
2023-04-02T11:23:21.187Z,3.88
2023-04-02T11:26:35.035Z,3.78
2023-04-02T11:29:27.630Z,3.72
2023-04-02T11:32:21.938Z,4.63
2023-04-02T11:34:59.556Z,5.82
2023-04-02T11:37:43.250Z,8.43
2023-04-02T11:40:16.125Z,3.80
2023-04-02T11:42:50.989Z,3.92
2023-04-02T11:45:21.634Z,3.60
2023-04-02T11:48:09.794Z,2.92
2023-04-02T11:50:45.862Z,2.83
2023-04-02T11:53:14.868Z,2.63
2023-04-02T11:55:51.952Z,4.03
2023-04-02T11:58:46.697Z,3.70
2023-04-02T12:01:56.169Z,2.65
2023-04-02T12:05:07.794Z,2.70
2023-04-02T12:07:46.921Z,2.60
2023-04-02T12:10:34.535Z,2.47
2023-04-02T12:13:02.227Z,2.25
2023-04-02T12:15:32.484Z,2.58
2023-04-02T12:18:15.313Z,14.35
2023-04-02T12:20:48.078Z,3.50
2023-04-02T12:23:21.170Z,5.45
2023-04-02T12:25:56.609Z,3.45
2023-04-02T12:28:24.545Z,4.35
2023-04-02T12:31:02.182Z,4.38
2023-04-02T12:33:33.914Z,4.90
2023-04-02T12:36:02.882Z,3.58
2023-04-02T12:38:36.839Z,3.83
2023-04-02T12:41:19.873Z,4.38
2023-04-02T12:43:47.642Z,3.88
2023-04-02T12:46:15.738Z,3.60
2023-04-02T12:48:43.340Z,4.25
2023-04-02T12:51:11.252Z,4.20
2023-04-02T12:53:41.350Z,7.07
2023-04-02T12:56:19.164Z,6.47
2023-04-02T12:58:56.750Z,7.35
2023-04-02T13:01:31.633Z,6.82
2023-04-02T13:04:08.974Z,7.35
2023-04-02T13:06:37.144Z,2.70
2023-04-02T13:09:07.682Z,3.50
2023-04-02T13:11:37.335Z,4.60
2023-04-02T13:14:07.602Z,4.28
2023-04-02T13:16:40.758Z,7.63
2023-04-02T13:19:17.570Z,6.65
2023-04-02T13:21:46.337Z,5.25
2023-04-02T13:24:22.089Z,6.03
2023-04-02T13:26:51.588Z,6.90
2023-04-02T13:29:21.917Z,9.23
2023-04-02T13:31:49.910Z,13.25
2023-04-02T13:34:18.432Z,14.25
2023-04-02T13:36:46.507Z,10.82
2023-04-02T13:39:14.375Z,8.18
2023-04-02T13:41:45.225Z,8.68
2023-04-02T13:44:21.551Z,12.68
2023-04-02T13:46:49.830Z,15.65
2023-04-02T13:49:18.444Z,24.27
2023-04-02T13:52:00.086Z,29.50
2023-04-02T13:54:34.978Z,21.55
2023-04-02T13:59:30.419Z,19.88
2023-04-02T14:02:04.241Z,15.52
2023-04-02T14:04:38.381Z,11.70
2023-04-02T14:07:21.844Z,12.77
2023-04-02T14:10:09.692Z,15.15
2023-04-02T14:13:04.715Z,17.55
2023-04-02T14:16:10.619Z,11.52
2023-04-02T14:18:46.878Z,14.43
2023-04-02T14:21:44.943Z,11.32
2023-04-02T14:24:35.628Z,12.18
2023-04-02T14:27:22.246Z,10.02
2023-04-02T14:30:21.387Z,11.73
2023-04-02T14:33:06.385Z,8.10
2023-04-02T14:35:39.439Z,5.18
2023-04-02T14:38:46.016Z,6.68
2023-04-02T14:41:29.066Z,7.03
2023-04-02T14:44:06.143Z,8.05
2023-04-02T14:46:37.610Z,10.25
2023-04-02T14:49:40.075Z,3.78
2023-04-02T14:52:14.206Z,3.35
2023-04-02T14:57:40.057Z,6.68
2023-04-02T15:00:31.841Z,4.15
2023-04-02T15:03:23.253Z,4.90
2023-04-02T15:06:00.148Z,7.25
2023-04-02T15:08:52.376Z,7.85
2023-04-02T15:11:46.012Z,10.57
2023-04-02T15:14:21.632Z,7.68
2023-04-02T15:16:49.340Z,7.53
2023-04-02T15:19:19.347Z,5.25
2023-04-02T15:22:26.407Z,6.38
2023-04-02T15:25:36.686Z,8.68
2023-04-02T15:28:21.704Z,8.30
2023-04-02T15:30:58.877Z,4.00
2023-04-02T15:33:29.087Z,4.32
2023-04-02T15:36:24.470Z,5.07
2023-04-02T16:29:13.939Z,11.40
2023-04-02T16:31:57.617Z,12.27
2023-04-02T16:34:42.566Z,11.52
2023-04-02T16:37:40.394Z,10.07
2023-04-02T16:44:39.349Z,27.73
2023-04-02T16:47:28.443Z,24.77
2023-04-02T16:50:02.398Z,19.00
2023-04-02T16:52:54.508Z,27.50
2023-04-02T16:55:45.066Z,33.92
2023-04-02T16:58:46.564Z,15.88
2023-04-02T17:01:47.433Z,27.40
2023-04-02T17:04:35.143Z,14.45
2023-04-02T17:07:18.493Z,17.40
2023-04-02T17:10:14.236Z,23.17
2023-04-02T17:12:47.133Z,23.05
2023-04-02T17:15:28.906Z,20.63
2023-04-02T17:18:00.557Z,25.67
2023-04-02T17:20:28.785Z,26.08
2023-04-02T17:23:00.112Z,38.70
2023-04-02T17:25:37.711Z,57.15
2023-04-02T17:28:12.788Z,35.47
2023-04-02T17:33:26.934Z,60.75
2023-04-02T17:36:36.171Z,87.23
2023-04-02T17:39:35.740Z,159.45
2023-04-02T17:42:10.556Z,63.13
2023-04-02T17:45:00.195Z,48.17
2023-04-02T17:47:46.084Z,52.55
2023-04-02T17:50:36.299Z,41.95
2023-04-02T17:53:39.162Z,48.10
2023-04-02T17:56:57.905Z,40.75
2023-04-02T18:00:16.381Z,51.17
2023-04-02T18:03:30.146Z,40.67
2023-04-02T18:06:08.240Z,32.72
2023-04-02T18:09:07.174Z,33.08
2023-04-02T18:11:51.908Z,32.63
2023-04-02T18:14:47.725Z,40.75
2023-04-02T18:17:19.340Z,41.08
2023-04-02T18:20:23.279Z,40.13
2023-04-02T18:23:01.361Z,36.95
2023-04-02T18:25:33.453Z,36.40
2023-04-02T18:28:21.558Z,36.13
2023-04-02T18:31:06.265Z,31.10
2023-04-02T18:33:46.286Z,34.70
2023-04-02T18:36:22.689Z,24.35
2023-04-02T18:39:04.994Z,19.15
2023-04-02T18:41:38.668Z,19.10
2023-04-02T18:44:22.475Z,17.80
2023-04-02T18:46:56.001Z,20.87
2023-04-02T18:49:28.617Z,19.02
2023-04-02T18:52:02.687Z,17.77
2023-04-02T18:54:39.170Z,19.23
2023-04-02T18:57:17.921Z,13.80
2023-04-02T18:59:51.395Z,13.60
2023-04-02T19:02:46.358Z,11.73
2023-04-02T19:05:22.961Z,12.07
2023-04-02T19:07:55.632Z,12.43
2023-04-02T19:10:39.193Z,11.77
2023-04-02T19:13:25.837Z,10.10
2023-04-02T19:16:17.776Z,17.70
2023-04-02T19:19:13.654Z,23.17
2023-04-02T19:21:49.840Z,23.00
2023-04-02T19:24:34.339Z,24.30
2023-04-02T19:27:27.426Z,26.15
2023-04-02T19:30:23.295Z,21.58
2023-04-02T19:33:16.685Z,48.13
2023-04-02T19:35:56.264Z,45.92
2023-04-02T19:38:44.998Z,23.20
2023-04-02T19:41:43.294Z,17.90
2023-04-02T19:44:13.400Z,14.88
2023-04-02T19:46:43.265Z,16.08
2023-04-02T19:49:23.002Z,12.02
2023-04-02T19:51:52.000Z,18.25
2023-04-02T19:54:19.537Z,14.88
2023-04-02T19:56:47.429Z,15.35
2023-04-02T19:59:18.111Z,13.95
2023-04-02T20:01:50.277Z,14.48
2023-04-02T20:04:17.773Z,14.20
2023-04-02T20:06:49.803Z,13.88
2023-04-02T20:09:18.634Z,13.57
2023-04-02T20:11:47.830Z,13.13
2023-04-02T20:14:15.975Z,10.98
2023-04-02T20:16:50.161Z,12.55
2023-04-02T20:19:17.509Z,11.50
2023-04-02T20:21:46.267Z,10.77
2023-04-02T20:24:13.633Z,12.85
2023-04-02T20:26:44.108Z,11.95
2023-04-02T20:29:11.427Z,12.13
2023-04-02T20:31:38.993Z,11.43
2023-04-02T20:34:09.578Z,12.07
2023-04-02T20:36:38.764Z,11.18
2023-04-02T20:39:08.457Z,18.98
2023-04-02T20:41:36.097Z,12.52
2023-04-02T20:44:03.808Z,12.55
2023-04-02T20:46:31.945Z,12.90
2023-04-02T20:48:59.548Z,11.52
2023-04-02T20:51:27.954Z,11.73
2023-04-02T20:53:55.534Z,13.82
2023-04-02T20:56:26.781Z,14.38
2023-04-02T20:58:54.013Z,13.10
2023-04-02T21:01:25.010Z,13.23
2023-04-02T21:03:57.870Z,11.20
2023-04-02T21:06:29.873Z,10.98
2023-04-02T21:08:59.240Z,10.07
2023-04-02T21:11:27.651Z,10.15
2023-04-02T21:13:57.073Z,9.63
2023-04-02T21:16:31.294Z,9.25
2023-04-02T21:19:03.729Z,10.95
2023-04-02T21:21:37.088Z,10.20
2023-04-02T21:24:09.286Z,11.38
2023-04-02T21:26:41.639Z,10.35
2023-04-02T21:29:12.322Z,10.70
2023-04-02T21:31:44.501Z,10.68
2023-04-02T21:34:16.901Z,11.20
2023-04-02T21:36:48.652Z,24.00
2023-04-02T21:39:22.485Z,23.27
2023-04-02T21:41:53.307Z,28.65
2023-04-02T21:44:23.334Z,30.25
2023-04-02T21:46:53.759Z,26.60
2023-04-02T21:49:23.459Z,23.55
2023-04-02T21:51:52.791Z,24.13
2023-04-02T21:54:21.317Z,20.17
2023-04-02T21:56:49.570Z,16.58
2023-04-02T21:59:17.820Z,14.90
2023-04-02T22:01:51.245Z,14.77
2023-04-02T22:04:24.492Z,15.43
2023-04-02T22:06:53.410Z,11.88
2023-04-02T22:09:26.693Z,11.48
2023-04-02T22:11:59.677Z,14.32
2023-04-02T22:14:27.816Z,11.75
2023-04-02T22:16:55.775Z,8.68
2023-04-02T22:19:23.559Z,12.05
2023-04-02T22:21:51.906Z,10.80
2023-04-02T22:24:22.194Z,9.85
2023-04-02T22:26:50.106Z,18.23
2023-04-02T22:29:18.504Z,9.45
2023-04-02T22:31:47.107Z,9.48
2023-04-02T22:34:15.737Z,8.90
2023-04-02T22:36:43.378Z,9.45
2023-04-02T22:39:12.583Z,15.07
2023-04-02T22:41:40.531Z,10.70
2023-04-02T22:44:08.098Z,9.73
2023-04-02T22:46:36.049Z,8.00
2023-04-02T22:49:03.561Z,6.85
2023-04-02T22:51:31.301Z,7.68
2023-04-02T22:53:58.626Z,7.10
2023-04-02T22:56:32.152Z,7.95
2023-04-02T22:59:00.209Z,7.75
2023-04-02T23:01:33.485Z,7.13
2023-04-02T23:04:01.179Z,7.15
2023-04-02T23:06:28.850Z,7.70
2023-04-02T23:08:56.228Z,7.63
2023-04-02T23:11:26.464Z,8.38
2023-04-02T23:13:56.756Z,7.90
2023-04-02T23:16:27.131Z,7.75
2023-04-02T23:18:55.629Z,9.25
2023-04-02T23:21:24.256Z,10.07
2023-04-02T23:23:52.514Z,8.75
2023-04-02T23:26:27.399Z,10.20
2023-04-02T23:31:23.820Z,8.05
2023-04-02T23:33:55.131Z,8.93
2023-04-02T23:36:29.913Z,9.48
2023-04-02T23:39:01.514Z,9.95
2023-04-02T23:41:33.541Z,10.02
2023-04-02T23:44:02.493Z,8.48
2023-04-02T23:46:36.153Z,8.85
2023-04-02T23:49:04.545Z,8.63
2023-04-02T23:51:33.830Z,8.80
2023-04-02T23:54:01.015Z,10.23
2023-04-02T23:56:28.753Z,8.75
2023-04-02T23:58:56.340Z,8.27
